X  CloseMetar Aviation Weather Data     YMAV Avalon

Temperature

17°C Temperature

17°C Dewpoint

100% Humidity



Wind

11 KM/H

 7 MPH

 3 M/S

 6 KTS



180°
Due South
Current Conditions

Mostly Scattered Clouds Mostly Scattered Clouds
Pressure 1004.92 (hPa) - 29.68 (in)
Visibility 6.2 (mi) - 10 (km)
Airport
Airport-code YMAV

Location Avalon 14 (km)

Metar:
YMAV 181430Z AUTO 18006KT 9999 // SCT015 17/17 Q1005 RF00.0/000.0

Time: 19-01-2020 01:30